sensor_id;sensor_type;location;lat;lon;timestamp;pressure;altitude;pressure_sealevel;temperature;humidity
13695;BME280;6919;52.344;14.518;2024-03-08T00:01:11;101562.97;;;2.05;100.00
13695;BME280;6919;52.344;14.518;2024-03-08T00:03:40;101560.41;;;2.20;100.00
13695;BME280;6919;52.344;14.518;2024-03-08T00:06:08;101557.69;;;2.22;100.00
13695;BME280;6919;52.344;14.518;2024-03-08T00:08:36;101560.63;;;2.33;100.00
13695;BME280;6919;52.344;14.518;2024-03-08T00:11:06;101561.97;;;2.24;100.00
13695;BME280;6919;52.344;14.518;2024-03-08T00:13:35;101557.50;;;2.42;100.00
13695;BME280;6919;52.344;14.518;2024-03-08T00:16:04;101556.03;;;2.36;100.00
13695;BME280;6919;52.344;14.518;2024-03-08T00:18:33;101552.47;;;2.37;100.00
13695;BME280;6919;52.344;14.518;2024-03-08T00:21:01;101555.19;;;2.36;100.00
13695;BME280;6919;52.344;14.518;2024-03-08T00:23:30;101553.78;;;2.29;100.00
13695;BME280;6919;52.344;14.518;2024-03-08T00:26:00;101555.34;;;2.33;100.00
13695;BME280;6919;52.344;14.518;2024-03-08T00:28:32;101554.09;;;2.23;100.00
13695;BME280;6919;52.344;14.518;2024-03-08T00:31:01;101550.06;;;2.16;100.00
13695;BME280;6919;52.344;14.518;2024-03-08T00:33:29;101557.13;;;2.15;100.00
13695;BME280;6919;52.344;14.518;2024-03-08T00:35:57;101545.63;;;2.16;100.00
13695;BME280;6919;52.344;14.518;2024-03-08T00:38:26;101548.34;;;2.15;100.00
13695;BME280;6919;52.344;14.518;2024-03-08T00:40:54;101549.75;;;2.22;100.00
13695;BME280;6919;52.344;14.518;2024-03-08T00:43:23;101542.91;;;2.18;100.00
13695;BME280;6919;52.344;14.518;2024-03-08T00:45:53;101545.28;;;2.22;100.00
13695;BME280;6919;52.344;14.518;2024-03-08T00:48:22;101541.81;;;2.22;100.00
13695;BME280;6919;52.344;14.518;2024-03-08T00:50:51;101535.72;;;2.20;100.00
13695;BME280;6919;52.344;14.518;2024-03-08T00:53:19;101532.19;;;2.04;100.00
13695;BME280;6919;52.344;14.518;2024-03-08T00:55:48;101530.94;;;2.11;100.00
13695;BME280;6919;52.344;14.518;2024-03-08T00:58:16;101538.06;;;2.09;100.00
13695;BME280;6919;52.344;14.518;2024-03-08T01:00:44;101529.34;;;2.07;100.00
13695;BME280;6919;52.344;14.518;2024-03-08T01:03:14;101526.97;;;2.19;100.00
13695;BME280;6919;52.344;14.518;2024-03-08T01:05:42;101528.44;;;2.25;100.00
13695;BME280;6919;52.344;14.518;2024-03-08T01:08:10;101525.56;;;2.12;100.00
13695;BME280;6919;52.344;14.518;2024-03-08T01:10:39;101519.72;;;2.06;100.00
13695;BME280;6919;52.344;14.518;2024-03-08T01:13:07;101518.16;;;2.02;100.00
13695;BME280;6919;52.344;14.518;2024-03-08T01:15:36;101521.91;;;1.98;100.00
13695;BME280;6919;52.344;14.518;2024-03-08T01:18:08;101523.94;;;1.93;100.00
13695;BME280;6919;52.344;14.518;2024-03-08T01:20:38;101514.34;;;1.90;100.00
13695;BME280;6919;52.344;14.518;2024-03-08T01:23:07;101517.78;;;1.92;100.00
13695;BME280;6919;52.344;14.518;2024-03-08T01:25:35;101519.25;;;1.81;100.00
13695;BME280;6919;52.344;14.518;2024-03-08T01:28:04;101516.22;;;1.88;100.00
13695;BME280;6919;52.344;14.518;2024-03-08T01:30:33;101510.84;;;2.07;100.00
13695;BME280;6919;52.344;14.518;2024-03-08T01:33:04;101512.38;;;2.28;100.00
13695;BME280;6919;52.344;14.518;2024-03-08T01:35:33;101507.56;;;2.36;100.00
13695;BME280;6919;52.344;14.518;2024-03-08T01:38:03;101505.81;;;2.35;100.00
13695;BME280;6919;52.344;14.518;2024-03-08T01:40:32;101501.16;;;2.40;100.00
13695;BME280;6919;52.344;14.518;2024-03-08T01:43:17;101496.72;;;2.40;100.00
13695;BME280;6919;52.344;14.518;2024-03-08T01:45:46;101499.34;;;2.25;100.00
13695;BME280;6919;52.344;14.518;2024-03-08T01:48:16;101495.44;;;1.98;100.00
13695;BME280;6919;52.344;14.518;2024-03-08T01:50:46;101491.25;;;1.94;100.00
13695;BME280;6919;52.344;14.518;2024-03-08T01:53:18;101480.59;;;1.78;100.00
13695;BME280;6919;52.344;14.518;2024-03-08T01:55:48;101488.84;;;1.89;100.00
13695;BME280;6919;52.344;14.518;2024-03-08T01:58:18;101487.97;;;1.89;100.00
13695;BME280;6919;52.344;14.518;2024-03-08T02:00:49;101481.34;;;1.80;100.00
13695;BME280;6919;52.344;14.518;2024-03-08T02:03:18;101485.56;;;1.67;100.00
13695;BME280;6919;52.344;14.518;2024-03-08T02:05:46;101476.84;;;1.65;100.00
13695;BME280;6919;52.344;14.518;2024-03-08T02:08:16;101472.44;;;1.66;100.00
13695;BME280;6919;52.344;14.518;2024-03-08T02:10:45;101467.22;;;1.64;100.00
13695;BME280;6919;52.344;14.518;2024-03-08T02:13:13;101468.94;;;1.82;100.00
13695;BME280;6919;52.344;14.518;2024-03-08T02:15:53;101476.22;;;1.94;100.00
13695;BME280;6919;52.344;14.518;2024-03-08T02:18:22;101465.34;;;2.00;100.00
13695;BME280;6919;52.344;14.518;2024-03-08T02:20:53;101470.78;;;1.80;100.00
13695;BME280;6919;52.344;14.518;2024-03-08T02:23:23;101470.47;;;1.69;100.00
13695;BME280;6919;52.344;14.518;2024-03-08T02:25:52;101465.88;;;1.56;100.00
13695;BME280;6919;52.344;14.518;2024-03-08T02:28:21;101462.78;;;1.48;100.00
13695;BME280;6919;52.344;14.518;2024-03-08T02:30:50;101468.06;;;1.48;100.00
13695;BME280;6919;52.344;14.518;2024-03-08T02:33:22;101458.81;;;1.56;100.00
13695;BME280;6919;52.344;14.518;2024-03-08T02:35:53;101459.59;;;1.58;100.00
13695;BME280;6919;52.344;14.518;2024-03-08T02:38:22;101458.94;;;1.36;100.00
13695;BME280;6919;52.344;14.518;2024-03-08T02:40:53;101463.69;;;1.30;100.00
13695;BME280;6919;52.344;14.518;2024-03-08T02:43:22;101455.91;;;1.27;100.00
13695;BME280;6919;52.344;14.518;2024-03-08T02:45:51;101458.69;;;1.24;100.00
13695;BME280;6919;52.344;14.518;2024-03-08T02:48:20;101453.56;;;1.21;100.00
13695;BME280;6919;52.344;14.518;2024-03-08T02:50:50;101451.72;;;1.23;100.00
13695;BME280;6919;52.344;14.518;2024-03-08T02:53:20;101456.81;;;1.09;100.00
13695;BME280;6919;52.344;14.518;2024-03-08T02:55:49;101454.09;;;1.10;100.00
13695;BME280;6919;52.344;14.518;2024-03-08T02:58:17;101447.00;;;1.11;100.00
13695;BME280;6919;52.344;14.518;2024-03-08T03:00:45;101452.53;;;1.06;100.00
13695;BME280;6919;52.344;14.518;2024-03-08T03:03:14;101454.53;;;0.83;100.00
13695;BME280;6919;52.344;14.518;2024-03-08T03:05:42;101450.03;;;0.85;100.00
13695;BME280;6919;52.344;14.518;2024-03-08T03:08:15;101456.25;;;0.84;100.00
13695;BME280;6919;52.344;14.518;2024-03-08T03:10:45;101453.03;;;0.96;100.00
13695;BME280;6919;52.344;14.518;2024-03-08T03:13:14;101450.03;;;1.03;100.00
13695;BME280;6919;52.344;14.518;2024-03-08T03:15:43;101455.25;;;1.05;100.00
13695;BME280;6919;52.344;14.518;2024-03-08T03:18:11;101456.88;;;1.07;100.00
13695;BME280;6919;52.344;14.518;2024-03-08T03:20:39;101451.66;;;1.06;100.00
13695;BME280;6919;52.344;14.518;2024-03-08T03:23:09;101446.31;;;1.07;100.00
13695;BME280;6919;52.344;14.518;2024-03-08T03:25:42;101443.13;;;1.18;100.00
13695;BME280;6919;52.344;14.518;2024-03-08T03:28:12;101448.28;;;1.21;100.00
13695;BME280;6919;52.344;14.518;2024-03-08T03:30:42;101447.19;;;1.25;100.00
13695;BME280;6919;52.344;14.518;2024-03-08T03:33:10;101442.78;;;1.25;100.00
13695;BME280;6919;52.344;14.518;2024-03-08T03:35:40;101439.03;;;1.29;100.00
13695;BME280;6919;52.344;14.518;2024-03-08T03:38:10;101444.44;;;1.09;100.00
13695;BME280;6919;52.344;14.518;2024-03-08T03:40:39;101447.13;;;1.08;100.00
13695;BME280;6919;52.344;14.518;2024-03-08T03:43:07;101440.31;;;1.04;100.00
13695;BME280;6919;52.344;14.518;2024-03-08T03:45:39;101444.47;;;0.91;100.00
13695;BME280;6919;52.344;14.518;2024-03-08T03:48:08;101440.63;;;0.98;100.00
13695;BME280;6919;52.344;14.518;2024-03-08T03:50:38;101443.25;;;0.98;100.00
13695;BME280;6919;52.344;14.518;2024-03-08T03:53:08;101443.19;;;0.99;100.00
13695;BME280;6919;52.344;14.518;2024-03-08T03:55:38;101445.03;;;0.97;100.00
13695;BME280;6919;52.344;14.518;2024-03-08T03:58:08;101448.03;;;0.90;100.00
13695;BME280;6919;52.344;14.518;2024-03-08T04:00:39;101444.28;;;0.77;100.00
13695;BME280;6919;52.344;14.518;2024-03-08T04:03:08;101436.13;;;0.81;100.00
13695;BME280;6919;52.344;14.518;2024-03-08T04:05:36;101440.91;;;0.73;100.00
13695;BME280;6919;52.344;14.518;2024-03-08T04:08:05;101446.25;;;0.72;100.00
13695;BME280;6919;52.344;14.518;2024-03-08T04:10:33;101435.50;;;0.76;100.00
13695;BME280;6919;52.344;14.518;2024-03-08T04:13:02;101430.34;;;0.73;100.00
13695;BME280;6919;52.344;14.518;2024-03-08T04:15:31;101441.31;;;0.83;100.00
13695;BME280;6919;52.344;14.518;2024-03-08T04:18:00;101446.31;;;0.70;100.00
13695;BME280;6919;52.344;14.518;2024-03-08T04:20:29;101440.06;;;0.73;100.00
13695;BME280;6919;52.344;14.518;2024-03-08T04:22:57;101437.50;;;0.71;100.00
13695;BME280;6919;52.344;14.518;2024-03-08T04:25:25;101438.53;;;0.67;100.00
13695;BME280;6919;52.344;14.518;2024-03-08T04:27:54;101434.94;;;0.70;100.00
13695;BME280;6919;52.344;14.518;2024-03-08T04:30:22;101437.91;;;0.62;100.00
13695;BME280;6919;52.344;14.518;2024-03-08T04:32:51;101432.44;;;0.67;100.00
13695;BME280;6919;52.344;14.518;2024-03-08T04:35:21;101428.78;;;0.69;100.00
13695;BME280;6919;52.344;14.518;2024-03-08T04:37:49;101428.50;;;0.57;100.00
13695;BME280;6919;52.344;14.518;2024-03-08T04:40:17;101426.00;;;0.54;100.00
13695;BME280;6919;52.344;14.518;2024-03-08T04:42:46;101423.38;;;0.54;100.00
13695;BME280;6919;52.344;14.518;2024-03-08T04:45:18;101427.22;;;0.47;100.00
13695;BME280;6919;52.344;14.518;2024-03-08T04:47:46;101421.81;;;0.50;100.00
13695;BME280;6919;52.344;14.518;2024-03-08T04:50:15;101417.94;;;0.57;100.00
13695;BME280;6919;52.344;14.518;2024-03-08T04:52:44;101418.31;;;0.68;100.00
13695;BME280;6919;52.344;14.518;2024-03-08T04:55:13;101419.50;;;0.61;100.00
13695;BME280;6919;52.344;14.518;2024-03-08T04:57:41;101416.03;;;0.42;100.00
13695;BME280;6919;52.344;14.518;2024-03-08T05:00:12;101411.53;;;0.44;100.00
13695;BME280;6919;52.344;14.518;2024-03-08T05:02:42;101416.09;;;0.40;100.00
13695;BME280;6919;52.344;14.518;2024-03-08T05:05:11;101412.78;;;0.35;100.00
13695;BME280;6919;52.344;14.518;2024-03-08T05:07:40;101424.06;;;0.20;100.00
13695;BME280;6919;52.344;14.518;2024-03-08T05:10:09;101423.28;;;0.18;100.00
13695;BME280;6919;52.344;14.518;2024-03-08T05:12:38;101424.47;;;0.11;100.00
13695;BME280;6919;52.344;14.518;2024-03-08T05:15:07;101428.50;;;0.20;100.00
13695;BME280;6919;52.344;14.518;2024-03-08T05:17:36;101418.78;;;0.20;100.00
13695;BME280;6919;52.344;14.518;2024-03-08T05:20:05;101422.16;;;0.24;100.00
13695;BME280;6919;52.344;14.518;2024-03-08T05:22:35;101422.38;;;0.38;100.00
13695;BME280;6919;52.344;14.518;2024-03-08T05:25:04;101419.22;;;0.48;100.00
13695;BME280;6919;52.344;14.518;2024-03-08T05:27:36;101420.31;;;0.63;100.00
13695;BME280;6919;52.344;14.518;2024-03-08T05:30:06;101419.50;;;0.61;100.00
13695;BME280;6919;52.344;14.518;2024-03-08T05:32:35;101416.59;;;0.48;100.00
13695;BME280;6919;52.344;14.518;2024-03-08T05:35:05;101410.59;;;0.26;100.00
13695;BME280;6919;52.344;14.518;2024-03-08T05:37:34;101414.47;;;0.38;100.00
13695;BME280;6919;52.344;14.518;2024-03-08T05:40:03;101405.81;;;0.34;100.00
13695;BME280;6919;52.344;14.518;2024-03-08T05:42:43;101404.53;;;0.43;100.00
13695;BME280;6919;52.344;14.518;2024-03-08T05:45:11;101416.59;;;0.48;100.00
13695;BME280;6919;52.344;14.518;2024-03-08T05:47:41;101416.38;;;0.53;100.00
13695;BME280;6919;52.344;14.518;2024-03-08T05:50:10;101416.59;;;0.48;100.00
13695;BME280;6919;52.344;14.518;2024-03-08T05:52:38;101419.88;;;0.35;100.00
13695;BME280;6919;52.344;14.518;2024-03-08T05:55:07;101413.97;;;0.48;100.00
13695;BME280;6919;52.344;14.518;2024-03-08T05:57:37;101405.09;;;0.68;100.00
13695;BME280;6919;52.344;14.518;2024-03-08T06:00:10;101407.34;;;0.94;100.00
13695;BME280;6919;52.344;14.518;2024-03-08T06:02:39;101414.50;;;0.92;100.00
13695;BME280;6919;52.344;14.518;2024-03-08T06:05:09;101411.66;;;0.59;100.00
13695;BME280;6919;52.344;14.518;2024-03-08T06:07:38;101415.94;;;0.62;100.00
13695;BME280;6919;52.344;14.518;2024-03-08T06:10:09;101417.75;;;0.61;100.00
13695;BME280;6919;52.344;14.518;2024-03-08T06:12:40;101414.50;;;0.73;100.00
13695;BME280;6919;52.344;14.518;2024-03-08T06:15:11;101430.28;;;0.75;100.00
13695;BME280;6919;52.344;14.518;2024-03-08T06:17:42;101426.56;;;0.79;100.00
13695;BME280;6919;52.344;14.518;2024-03-08T06:20:11;101422.94;;;1.17;100.00
13695;BME280;6919;52.344;14.518;2024-03-08T06:22:40;101416.00;;;1.33;100.00
13695;BME280;6919;52.344;14.518;2024-03-08T06:25:10;101421.75;;;1.41;100.00
13695;BME280;6919;52.344;14.518;2024-03-08T06:27:41;101424.66;;;1.18;100.00
13695;BME280;6919;52.344;14.518;2024-03-08T06:30:12;101415.91;;;1.51;100.00
13695;BME280;6919;52.344;14.518;2024-03-08T06:32:43;101421.28;;;1.67;100.00
13695;BME280;6919;52.344;14.518;2024-03-08T06:35:11;101417.78;;;1.49;100.00
13695;BME280;6919;52.344;14.518;2024-03-08T06:37:40;101426.69;;;1.30;100.00
13695;BME280;6919;52.344;14.518;2024-03-08T06:40:12;101422.97;;;1.34;100.00
13695;BME280;6919;52.344;14.518;2024-03-08T06:42:41;101425.16;;;1.60;100.00
13695;BME280;6919;52.344;14.518;2024-03-08T06:45:11;101418.16;;;1.76;100.00
13695;BME280;6919;52.344;14.518;2024-03-08T06:47:42;101428.09;;;2.05;100.00
13695;BME280;6919;52.344;14.518;2024-03-08T06:50:11;101422.16;;;2.32;100.00
13695;BME280;6919;52.344;14.518;2024-03-08T06:52:39;101420.00;;;2.56;100.00
13695;BME280;6919;52.344;14.518;2024-03-08T06:55:09;101423.53;;;2.87;100.00
13695;BME280;6919;52.344;14.518;2024-03-08T06:57:39;101420.00;;;3.02;100.00
13695;BME280;6919;52.344;14.518;2024-03-08T07:00:11;101418.53;;;3.28;100.00
13695;BME280;6919;52.344;14.518;2024-03-08T07:02:46;101416.31;;;3.21;100.00
13695;BME280;6919;52.344;14.518;2024-03-08T07:05:16;101417.69;;;3.57;100.00
13695;BME280;6919;52.344;14.518;2024-03-08T07:07:45;101413.41;;;3.84;100.00
13695;BME280;6919;52.344;14.518;2024-03-08T07:10:15;101425.56;;;4.16;100.00
13695;BME280;6919;52.344;14.518;2024-03-08T07:12:43;101425.38;;;4.33;100.00
13695;BME280;6919;52.344;14.518;2024-03-08T07:15:15;101422.25;;;4.41;100.00
13695;BME280;6919;52.344;14.518;2024-03-08T07:17:47;101425.56;;;4.58;100.00
13695;BME280;6919;52.344;14.518;2024-03-08T07:20:16;101420.81;;;4.49;100.00
13695;BME280;6919;52.344;14.518;2024-03-08T07:22:46;101414.66;;;4.49;100.00
13695;BME280;6919;52.344;14.518;2024-03-08T07:25:18;101410.56;;;4.71;100.00
13695;BME280;6919;52.344;14.518;2024-03-08T07:27:50;101415.09;;;4.83;100.00
13695;BME280;6919;52.344;14.518;2024-03-08T07:30:21;101415.84;;;4.85;100.00
13695;BME280;6919;52.344;14.518;2024-03-08T07:33:07;101416.06;;;5.09;100.00
13695;BME280;6919;52.344;14.518;2024-03-08T07:35:49;101417.00;;;5.34;100.00
13695;BME280;6919;52.344;14.518;2024-03-08T07:38:17;101408.78;;;5.25;100.00
13695;BME280;6919;52.344;14.518;2024-03-08T07:40:49;101414.00;;;5.26;100.00
13695;BME280;6919;52.344;14.518;2024-03-08T07:43:18;101415.25;;;5.47;100.00
13695;BME280;6919;52.344;14.518;2024-03-08T07:45:47;101407.72;;;5.66;100.00
13695;BME280;6919;52.344;14.518;2024-03-08T07:48:16;101414.78;;;5.80;100.00
13695;BME280;6919;52.344;14.518;2024-03-08T07:50:44;101408.47;;;5.95;100.00
13695;BME280;6919;52.344;14.518;2024-03-08T07:53:13;101410.78;;;5.99;100.00
13695;BME280;6919;52.344;14.518;2024-03-08T07:55:42;101400.78;;;6.16;100.00
13695;BME280;6919;52.344;14.518;2024-03-08T07:58:11;101404.94;;;6.32;100.00
13695;BME280;6919;52.344;14.518;2024-03-08T08:00:40;101399.59;;;6.45;100.00
13695;BME280;6919;52.344;14.518;2024-03-08T08:03:11;101404.06;;;6.57;100.00
13695;BME280;6919;52.344;14.518;2024-03-08T08:05:40;101405.34;;;6.64;100.00
13695;BME280;6919;52.344;14.518;2024-03-08T08:08:09;101402.22;;;6.70;100.00
13695;BME280;6919;52.344;14.518;2024-03-08T08:10:38;101404.13;;;6.80;100.00
13695;BME280;6919;52.344;14.518;2024-03-08T08:13:07;101398.03;;;6.78;100.00
13695;BME280;6919;52.344;14.518;2024-03-08T08:15:35;101391.63;;;6.81;100.00
13695;BME280;6919;52.344;14.518;2024-03-08T08:18:04;101394.56;;;6.65;100.00
13695;BME280;6919;52.344;14.518;2024-03-08T08:20:35;101398.19;;;6.52;100.00
13695;BME280;6919;52.344;14.518;2024-03-08T08:23:04;101395.91;;;6.83;100.00
13695;BME280;6919;52.344;14.518;2024-03-08T08:25:33;101396.22;;;7.15;100.00
13695;BME280;6919;52.344;14.518;2024-03-08T08:28:02;101390.66;;;7.18;100.00
13695;BME280;6919;52.344;14.518;2024-03-08T08:30:32;101387.69;;;7.33;100.00
13695;BME280;6919;52.344;14.518;2024-03-08T08:33:01;101377.69;;;7.01;99.75
13695;BME280;6919;52.344;14.518;2024-03-08T08:35:29;101379.94;;;7.07;100.00
13695;BME280;6919;52.344;14.518;2024-03-08T08:37:59;101373.84;;;7.28;100.00
13695;BME280;6919;52.344;14.518;2024-03-08T08:40:28;101375.66;;;7.28;100.00
13695;BME280;6919;52.344;14.518;2024-03-08T08:42:57;101373.13;;;7.61;100.00
13695;BME280;6919;52.344;14.518;2024-03-08T08:45:26;101363.06;;;7.64;100.00
13695;BME280;6919;52.344;14.518;2024-03-08T08:47:55;101370.31;;;7.51;99.40
13695;BME280;6919;52.344;14.518;2024-03-08T08:50:23;101367.81;;;7.72;100.00
13695;BME280;6919;52.344;14.518;2024-03-08T08:52:52;101362.06;;;8.11;97.75
13695;BME280;6919;52.344;14.518;2024-03-08T08:55:22;101365.94;;;8.18;98.48
13695;BME280;6919;52.344;14.518;2024-03-08T08:57:53;101366.81;;;8.07;94.38
13695;BME280;6919;52.344;14.518;2024-03-08T09:00:23;101357.56;;;8.11;88.01
13695;BME280;6919;52.344;14.518;2024-03-08T09:02:55;101350.41;;;8.12;84.06
13695;BME280;6919;52.344;14.518;2024-03-08T09:05:25;101356.50;;;8.25;82.82
13695;BME280;6919;52.344;14.518;2024-03-08T09:07:54;101352.38;;;8.32;78.54
13695;BME280;6919;52.344;14.518;2024-03-08T09:10:25;101344.50;;;8.52;77.40
13695;BME280;6919;52.344;14.518;2024-03-08T09:12:57;101348.63;;;8.45;74.56
13695;BME280;6919;52.344;14.518;2024-03-08T09:15:26;101340.97;;;8.41;74.00
13695;BME280;6919;52.344;14.518;2024-03-08T09:17:56;101335.47;;;8.64;74.40
13695;BME280;6919;52.344;14.518;2024-03-08T09:20:24;101335.56;;;8.74;71.99
13695;BME280;6919;52.344;14.518;2024-03-08T09:22:52;101327.78;;;8.82;72.37
13695;BME280;6919;52.344;14.518;2024-03-08T09:25:22;101324.66;;;9.08;71.25
13695;BME280;6919;52.344;14.518;2024-03-08T09:27:52;101320.44;;;9.27;70.85
13695;BME280;6919;52.344;14.518;2024-03-08T09:30:21;101321.81;;;9.21;68.23
13695;BME280;6919;52.344;14.518;2024-03-08T09:32:51;101320.63;;;9.14;68.08
13695;BME280;6919;52.344;14.518;2024-03-08T09:35:20;101308.72;;;9.18;68.31
13695;BME280;6919;52.344;14.518;2024-03-08T09:37:49;101307.84;;;9.18;67.53
13695;BME280;6919;52.344;14.518;2024-03-08T09:40:19;101307.28;;;9.35;67.58
13695;BME280;6919;52.344;14.518;2024-03-08T09:42:50;101307.94;;;8.95;66.27
13695;BME280;6919;52.344;14.518;2024-03-08T09:45:21;101297.75;;;9.42;63.42
13695;BME280;6919;52.344;14.518;2024-03-08T09:47:51;101300.03;;;9.46;61.18
13695;BME280;6919;52.344;14.518;2024-03-08T09:50:20;101289.66;;;9.32;63.48
13695;BME280;6919;52.344;14.518;2024-03-08T09:52:49;101301.38;;;9.41;62.31
13695;BME280;6919;52.344;14.518;2024-03-08T09:55:18;101287.38;;;9.48;61.57
13695;BME280;6919;52.344;14.518;2024-03-08T09:57:53;101283.78;;;9.59;59.55
13695;BME280;6919;52.344;14.518;2024-03-08T10:00:36;101285.00;;;9.55;58.87
13695;BME280;6919;52.344;14.518;2024-03-08T10:03:05;101281.88;;;9.70;60.00
13695;BME280;6919;52.344;14.518;2024-03-08T10:05:33;101282.81;;;9.90;59.34
13695;BME280;6919;52.344;14.518;2024-03-08T10:08:02;101272.31;;;9.98;60.41
13695;BME280;6919;52.344;14.518;2024-03-08T10:10:33;101273.53;;;9.94;58.47
13695;BME280;6919;52.344;14.518;2024-03-08T10:13:05;101254.13;;;10.01;57.79
13695;BME280;6919;52.344;14.518;2024-03-08T10:15:34;101255.03;;;10.11;56.95
13695;BME280;6919;52.344;14.518;2024-03-08T10:18:08;101256.81;;;10.01;58.73
13695;BME280;6919;52.344;14.518;2024-03-08T10:20:38;101255.94;;;10.21;57.35
13695;BME280;6919;52.344;14.518;2024-03-08T10:23:06;101265.28;;;10.06;56.03
13695;BME280;6919;52.344;14.518;2024-03-08T10:25:38;101262.75;;;10.05;54.85
13695;BME280;6919;52.344;14.518;2024-03-08T10:28:08;101255.31;;;10.08;55.13
13695;BME280;6919;52.344;14.518;2024-03-08T10:30:37;101253.13;;;10.02;52.50
13695;BME280;6919;52.344;14.518;2024-03-08T10:33:05;101249.03;;;9.98;54.71
13695;BME280;6919;52.344;14.518;2024-03-08T10:35:34;101251.69;;;9.98;52.58
13695;BME280;6919;52.344;14.518;2024-03-08T10:38:07;101253.25;;;10.01;52.11
13695;BME280;6919;52.344;14.518;2024-03-08T10:40:40;101248.84;;;10.20;52.05
13695;BME280;6919;52.344;14.518;2024-03-08T10:43:23;101251.63;;;10.09;49.62
13695;BME280;6919;52.344;14.518;2024-03-08T10:46:14;101247.63;;;10.04;51.04
13695;BME280;6919;52.344;14.518;2024-03-08T10:48:52;101245.63;;;10.17;50.05
13695;BME280;6919;52.344;14.518;2024-03-08T10:51:24;101239.00;;;10.21;50.29
13695;BME280;6919;52.344;14.518;2024-03-08T10:53:54;101238.97;;;10.11;49.83
13695;BME280;6919;52.344;14.518;2024-03-08T10:56:25;101243.94;;;10.25;48.84
13695;BME280;6919;52.344;14.518;2024-03-08T10:58:56;101236.09;;;10.03;48.81
13695;BME280;6919;52.344;14.518;2024-03-08T11:01:25;101234.50;;;10.21;49.07
13695;BME280;6919;52.344;14.518;2024-03-08T11:03:53;101230.66;;;10.14;48.72
13695;BME280;6919;52.344;14.518;2024-03-08T11:06:31;101220.13;;;10.32;49.07
13695;BME280;6919;52.344;14.518;2024-03-08T11:12:20;101208.72;;;10.58;46.68
13695;BME280;6919;52.344;14.518;2024-03-08T11:14:51;101206.50;;;10.63;46.34
13695;BME280;6919;52.344;14.518;2024-03-08T11:17:45;101203.75;;;10.35;45.48
13695;BME280;6919;52.344;14.518;2024-03-08T11:20:17;101196.19;;;10.49;46.37
13695;BME280;6919;52.344;14.518;2024-03-08T11:22:52;101201.69;;;10.67;46.08
13695;BME280;6919;52.344;14.518;2024-03-08T11:25:36;101192.22;;;10.72;46.03
13695;BME280;6919;52.344;14.518;2024-03-08T11:28:13;101186.88;;;10.72;45.51
13695;BME280;6919;52.344;14.518;2024-03-08T11:31:23;101181.78;;;10.88;46.53
13695;BME280;6919;52.344;14.518;2024-03-08T11:33:53;101177.81;;;11.11;45.86
13695;BME280;6919;52.344;14.518;2024-03-08T11:36:23;101175.13;;;11.11;45.90
13695;BME280;6919;52.344;14.518;2024-03-08T11:38:53;101179.53;;;10.93;45.18
13695;BME280;6919;52.344;14.518;2024-03-08T11:41:24;101175.16;;;10.92;45.27
13695;BME280;6919;52.344;14.518;2024-03-08T11:44:03;101173.84;;;11.06;44.93
13695;BME280;6919;52.344;14.518;2024-03-08T11:46:35;101160.41;;;11.15;44.38
13695;BME280;6919;52.344;14.518;2024-03-08T11:49:03;101163.66;;;11.19;43.82
13695;BME280;6919;52.344;14.518;2024-03-08T11:51:33;101165.94;;;11.23;43.94
13695;BME280;6919;52.344;14.518;2024-03-08T11:54:01;101154.69;;;11.47;44.38
13695;BME280;6919;52.344;14.518;2024-03-08T11:56:30;101152.94;;;11.19;45.08
13695;BME280;6919;52.344;14.518;2024-03-08T11:58:59;101163.66;;;11.28;44.80
13695;BME280;6919;52.344;14.518;2024-03-08T12:01:28;101157.50;;;10.80;44.12
13695;BME280;6919;52.344;14.518;2024-03-08T12:04:00;101155.22;;;10.66;45.63
13695;BME280;6919;52.344;14.518;2024-03-08T12:06:37;101143.22;;;10.89;44.77
13695;BME280;6919;52.344;14.518;2024-03-08T12:09:11;101139.44;;;10.73;43.45
13695;BME280;6919;52.344;14.518;2024-03-08T12:11:40;101138.28;;;10.94;44.19
13695;BME280;6919;52.344;14.518;2024-03-08T12:14:10;101138.72;;;10.80;43.75
13695;BME280;6919;52.344;14.518;2024-03-08T12:16:38;101134.00;;;11.93;42.20
13695;BME280;6919;52.344;14.518;2024-03-08T12:19:08;101137.53;;;12.21;41.75
13695;BME280;6919;52.344;14.518;2024-03-08T12:21:37;101125.63;;;12.24;41.46
13695;BME280;6919;52.344;14.518;2024-03-08T12:24:15;101129.09;;;12.34;40.90
13695;BME280;6919;52.344;14.518;2024-03-08T12:26:47;101125.84;;;12.13;41.25
13695;BME280;6919;52.344;14.518;2024-03-08T12:29:18;101123.75;;;12.07;41.18
13695;BME280;6919;52.344;14.518;2024-03-08T12:31:48;101121.03;;;12.34;40.24
13695;BME280;6919;52.344;14.518;2024-03-08T12:34:20;101129.34;;;12.58;40.12
13695;BME280;6919;52.344;14.518;2024-03-08T12:36:49;101118.16;;;12.53;40.95
13695;BME280;6919;52.344;14.518;2024-03-08T12:39:20;101118.00;;;12.19;40.75
13695;BME280;6919;52.344;14.518;2024-03-08T12:41:54;101113.41;;;12.29;42.23
13695;BME280;6919;52.344;14.518;2024-03-08T12:44:24;101108.88;;;12.30;41.61
13695;BME280;6919;52.344;14.518;2024-03-08T12:46:53;101106.75;;;12.51;41.92
13695;BME280;6919;52.344;14.518;2024-03-08T12:49:23;101116.09;;;12.47;40.17
13695;BME280;6919;52.344;14.518;2024-03-08T12:51:52;101104.00;;;12.68;40.82
13695;BME280;6919;52.344;14.518;2024-03-08T12:54:21;101102.41;;;12.75;40.29
13695;BME280;6919;52.344;14.518;2024-03-08T12:56:52;101100.31;;;12.87;40.04
13695;BME280;6919;52.344;14.518;2024-03-08T12:59:22;101090.91;;;12.91;40.35
13695;BME280;6919;52.344;14.518;2024-03-08T13:01:51;101100.00;;;12.90;40.13
13695;BME280;6919;52.344;14.518;2024-03-08T13:04:22;101090.53;;;12.86;39.82
13695;BME280;6919;52.344;14.518;2024-03-08T13:06:52;101077.72;;;12.80;40.27
13695;BME280;6919;52.344;14.518;2024-03-08T13:09:22;101094.25;;;12.50;39.67